createdAt,value
2015-10-11T00:00:14.808Z,65.2
2015-10-11T00:01:14.746Z,65.4
2015-10-11T00:02:14.685Z,64.8
2015-10-11T00:03:14.624Z,65.5
2015-10-11T00:04:14.563Z,66
2015-10-11T00:05:14.502Z,66
2015-10-11T00:06:14.442Z,65.5
2015-10-11T00:07:14.382Z,65.7
2015-10-11T00:08:14.353Z,65.2
2015-10-11T00:09:14.278Z,66.4
2015-10-11T00:10:14.217Z,65.4
2015-10-11T00:11:14.156Z,65.3
2015-10-11T00:12:14.112Z,64.8
2015-10-11T00:13:14.052Z,65.1
2015-10-11T00:14:14.164Z,65
2015-10-11T00:15:13.932Z,66.1
2015-10-11T00:16:13.715Z,65.1
2015-10-11T00:17:13.828Z,65.7
2015-10-11T00:18:13.768Z,65.4
2015-10-11T00:19:13.707Z,65.7
2015-10-11T00:20:13.664Z,65.3
2015-10-11T00:21:13.604Z,65.2
2015-10-11T00:22:13.544Z,65.2
2015-10-11T00:23:13.485Z,64.9
2015-10-11T00:24:13.425Z,64.5
2015-10-11T00:25:13.365Z,65.1
2015-10-11T00:26:13.305Z,65.9
2015-10-11T00:27:13.262Z,64.9
2015-10-11T00:28:13.185Z,65.2
2015-10-11T00:29:13.142Z,64
2015-10-11T00:30:13.315Z,64.8
2015-10-11T00:31:13.037Z,65.5
2015-10-11T00:32:12.962Z,65.2
2015-10-11T00:33:12.918Z,64.5
2015-10-11T00:34:13.077Z,65.8
2015-10-11T00:35:12.798Z,65.6
2015-10-11T00:36:12.754Z,64
2015-10-11T00:37:12.678Z,64.3
2015-10-11T00:38:12.619Z,65.1
2015-10-11T00:39:12.576Z,64
2015-10-11T00:40:12.515Z,64.5
2015-10-11T00:41:12.456Z,65.1
2015-10-11T00:42:12.395Z,64.4
2015-10-11T00:43:12.336Z,65.1
2015-10-11T00:44:12.276Z,64.5
2015-10-11T00:45:12.216Z,64.4
2015-10-11T00:46:12.172Z,64.2
2015-10-11T00:47:12.112Z,64.8
2015-10-11T00:48:12.053Z,64.5
2015-10-11T00:49:11.992Z,65.3
2015-10-11T00:50:11.933Z,64.4
2015-10-11T00:51:11.872Z,65.1
2015-10-11T00:52:11.829Z,65.4
2015-10-11T00:53:11.769Z,65.3
2015-10-11T00:54:11.710Z,65.5
2015-10-11T00:55:11.649Z,65.1
2015-10-11T00:56:11.621Z,65.2
2015-10-11T00:57:11.905Z,64.9
2015-10-11T00:58:11.471Z,65.3
2015-10-11T00:59:11.426Z,65.3
2015-10-11T01:00:11.382Z,65.5
2015-10-11T01:01:11.542Z,64.9
2015-10-11T01:02:11.247Z,64.5
2015-10-11T01:03:11.188Z,65.4
2015-10-11T01:04:11.144Z,65.1
2015-10-11T01:05:11.083Z,65.2
2015-10-11T01:06:11.258Z,65.1
2015-10-11T01:07:10.964Z,65.2
2015-10-11T01:08:10.920Z,64.6
2015-10-11T01:09:10.844Z,65.2
2015-10-11T01:10:10.785Z,65.6
2015-10-11T01:11:10.757Z,64.8
2015-10-11T01:12:10.680Z,65.5
2015-10-11T01:13:10.605Z,65.9
2015-10-11T01:14:10.561Z,64.8
2015-10-11T01:15:10.736Z,66
2015-10-11T01:16:10.439Z,64.8
2015-10-11T01:17:10.395Z,65.9
2015-10-11T01:18:10.335Z,66.1
2015-10-11T01:19:10.259Z,65.8
2015-10-11T01:20:10.215Z,66
2015-10-11T01:21:10.140Z,65.3
2015-10-11T01:22:10.095Z,65.6
2015-10-11T01:23:10.036Z,65.6
2015-10-11T01:24:10.007Z,65.6
2015-10-11T01:25:09.917Z,65.7
2015-10-11T01:26:09.872Z,65.3
2015-10-11T01:27:09.798Z,65.1
2015-10-11T01:28:09.753Z,65.3
2015-10-11T01:29:09.693Z,65.4
2015-10-11T01:30:09.633Z,66
2015-10-11T01:31:08.839Z,65.5
2015-10-11T01:32:09.373Z,65.4
2015-10-11T01:33:08.719Z,65.9
2015-10-11T01:34:09.410Z,66.3
2015-10-11T01:35:09.351Z,66.2
2015-10-11T01:36:09.290Z,65.9
2015-10-11T01:37:09.246Z,65.7
2015-10-11T01:38:09.420Z,66.3
2015-10-11T01:39:09.126Z,66.2
2015-10-11T01:40:08.333Z,65.2
2015-10-11T01:41:09.007Z,65
2015-10-11T01:42:09.181Z,65.9
2015-10-11T01:43:08.903Z,65.3
2015-10-11T01:44:08.843Z,65
2015-10-11T01:45:08.783Z,65.4
2015-10-11T01:46:08.739Z,65.7
2015-10-11T01:47:08.695Z,65.4
2015-10-11T01:48:08.604Z,64.9
2015-10-11T01:49:08.560Z,65.1
2015-10-11T01:50:08.500Z,65.2
2015-10-11T01:51:08.425Z,65.2
2015-10-11T01:52:08.381Z,64.9
2015-10-11T01:53:08.321Z,65.2
2015-10-11T01:54:08.278Z,64.9
2015-10-11T01:55:08.202Z,65.3
2015-10-11T01:56:08.158Z,63.7
2015-10-11T01:57:08.098Z,65.1
2015-10-11T01:58:08.038Z,65.8
2015-10-11T01:59:08.213Z,65.9
2015-10-11T02:00:07.918Z,66.3
2015-10-11T02:01:07.874Z,66.2
2015-10-11T02:02:07.846Z,66.1
2015-10-11T02:03:07.755Z,65.5
2015-10-11T02:04:07.695Z,65.9
2015-10-11T02:05:07.651Z,65.6
2015-10-11T02:06:07.575Z,66
2015-10-11T02:07:07.513Z,65.9
2015-10-11T02:08:06.734Z,65.4
2015-10-11T02:09:07.410Z,66.2
2015-10-11T02:10:07.350Z,66.3
2015-10-11T02:11:07.290Z,65.8
2015-10-11T02:12:07.230Z,66.3
2015-10-11T02:13:07.185Z,66.3
2015-10-11T02:14:07.126Z,66.1
2015-10-11T02:15:07.065Z,65.6
2015-10-11T02:16:07.256Z,67.1
2015-10-11T02:17:06.947Z,66.9
2015-10-11T02:18:06.887Z,67.1
2015-10-11T02:19:06.843Z,66.2
2015-10-11T02:20:06.768Z,65.8
2015-10-11T02:21:06.724Z,66.4
2015-10-11T02:22:06.663Z,66.1
2015-10-11T02:23:06.603Z,66.2
2015-10-11T02:24:06.560Z,66.9
2015-10-11T02:25:06.499Z,66.5
2015-10-11T02:26:06.440Z,66.1
2015-10-11T02:27:06.380Z,66.1
2015-10-11T02:28:06.321Z,66.1
2015-10-11T02:29:06.260Z,66.2
2015-10-11T02:30:06.201Z,66.7
2015-10-11T02:31:06.157Z,66.3
2015-10-11T02:32:06.081Z,66.4
2015-10-11T02:33:06.037Z,66.7
2015-10-11T02:34:05.979Z,66.2
2015-10-11T02:35:05.918Z,66.3
2015-10-11T02:36:05.859Z,66.8
2015-10-11T02:37:05.814Z,67.3
2015-10-11T02:38:05.832Z,66.9
2015-10-11T02:39:05.679Z,66.4
2015-10-11T02:40:05.635Z,67
2015-10-11T02:41:05.575Z,67
2015-10-11T02:42:05.515Z,67.4
2015-10-11T02:43:05.470Z,66.9
2015-10-11T02:44:05.411Z,66.7
2015-10-11T02:45:05.337Z,67.4
2015-10-11T02:46:05.292Z,67.7
2015-10-11T02:47:05.232Z,67.1
2015-10-11T02:48:05.172Z,67.9
2015-10-11T02:49:05.112Z,66.9
2015-10-11T02:50:05.053Z,66.2
2015-10-11T02:51:04.993Z,66.9
2015-10-11T02:52:04.948Z,67.2
2015-10-11T02:53:04.905Z,66.6
2015-10-11T02:54:04.844Z,67.3
2015-10-11T02:55:04.769Z,66.7
2015-10-11T02:56:04.709Z,66.9
2015-10-11T02:57:04.650Z,67.5
2015-10-11T02:58:04.587Z,67.3
2015-10-11T02:59:04.559Z,67.8
2015-10-11T03:00:04.468Z,67
2015-10-11T03:01:04.425Z,67.1
2015-10-11T03:02:04.364Z,67.2
2015-10-11T03:03:04.304Z,67.2
2015-10-11T03:04:04.244Z,67.5
2015-10-11T03:05:04.200Z,67.3
2015-10-11T03:06:04.125Z,67.2
2015-10-11T03:07:04.097Z,66.3
2015-10-11T03:08:04.022Z,66.7
2015-10-11T03:09:03.961Z,66.9
2015-10-11T03:10:03.902Z,67.5
2015-10-11T03:11:03.842Z,66.9
2015-10-11T03:12:03.783Z,66.6
2015-10-11T03:13:03.722Z,66
2015-10-11T03:14:03.678Z,66.1
2015-10-11T03:15:03.619Z,65.5
2015-10-11T03:16:03.543Z,66.3
2015-10-11T03:17:03.499Z,66.7
2015-10-11T03:18:03.438Z,66.7
2015-10-11T03:19:03.395Z,67
2015-10-11T03:20:03.336Z,67.7
2015-10-11T03:21:03.291Z,66.9
2015-10-11T03:22:03.200Z,66.6
2015-10-11T03:23:03.171Z,66.8
2015-10-11T03:24:03.097Z,67.1
2015-10-11T03:25:03.036Z,67.1
2015-10-11T03:26:02.977Z,67
2015-10-11T03:27:02.916Z,67.2
2015-10-11T03:28:03.091Z,67.2
2015-10-11T03:29:02.797Z,66.2
2015-10-11T03:30:02.737Z,66.7
2015-10-11T03:31:02.693Z,66.5
2015-10-11T03:32:02.634Z,66.5
2015-10-11T03:33:02.574Z,66.9
2015-10-11T03:34:02.515Z,66.8
2015-10-11T03:35:02.454Z,67.3
2015-10-11T03:36:02.395Z,66.7
2015-10-11T03:37:02.569Z,67
2015-10-11T03:38:02.290Z,67
2015-10-11T03:39:02.215Z,66.9
2015-10-11T03:40:02.170Z,66.7
2015-10-11T03:41:02.112Z,66.2
2015-10-11T03:42:02.098Z,66.2
2015-10-11T03:43:01.992Z,66.8
2015-10-11T03:44:01.948Z,66.7
2015-10-11T03:45:01.873Z,66.7
2015-10-11T03:46:02.062Z,66.7
2015-10-11T03:47:01.768Z,66.4
2015-10-11T03:48:01.709Z,67
2015-10-11T03:49:01.649Z,66.6
2015-10-11T03:50:01.823Z,67.3
2015-10-11T03:51:01.529Z,67.1
2015-10-11T03:52:01.704Z,67.4
2015-10-11T03:53:01.426Z,66.4
2015-10-11T03:54:01.350Z,66.6
2015-10-11T03:55:01.287Z,66.9
2015-10-11T03:56:01.118Z,66.5
2015-10-11T03:57:01.200Z,67
2015-10-11T03:58:01.124Z,66.7
2015-10-11T03:59:01.064Z,66.9
2015-10-11T04:00:01.019Z,67.2
2015-10-11T04:01:00.944Z,67.5
2015-10-11T04:02:00.884Z,67.1
2015-10-11T04:03:00.841Z,67.1
2015-10-11T04:04:01.014Z,66.7
2015-10-11T04:05:00.706Z,66.7
2015-10-11T04:06:00.661Z,66.8
2015-10-11T04:07:00.602Z,67.7
2015-10-11T04:08:00.557Z,67.5
2015-10-11T04:09:00.482Z,66.9
2015-10-11T04:10:00.422Z,67.7
2015-10-11T04:11:00.378Z,66.7
2015-10-11T04:12:00.302Z,67.3
2015-10-11T04:13:00.259Z,67.6
2015-10-11T04:14:00.200Z,67.6
2015-10-11T04:14:59.405Z,67.8
2015-10-11T04:16:00.094Z,67.8
2015-10-11T04:17:00.036Z,67.9
2015-10-11T04:17:59.960Z,68.2
2015-10-11T04:18:59.916Z,68
2015-10-11T04:19:59.856Z,67.3
2015-10-11T04:20:59.796Z,68.7
2015-10-11T04:21:59.736Z,68.3
2015-10-11T04:22:59.677Z,68.2
2015-10-11T04:23:59.617Z,68.2
2015-10-11T04:24:59.572Z,68.5
2015-10-11T04:25:59.513Z,69.1
2015-10-11T04:26:59.453Z,68.5
2015-10-11T04:27:59.394Z,68.7
2015-10-11T04:28:59.349Z,67.9
2015-10-11T04:29:59.290Z,67.8
2015-10-11T04:30:59.245Z,68.6
2015-10-11T04:31:59.170Z,68.7
2015-10-11T04:32:59.111Z,68.9
2015-10-11T04:33:59.066Z,69.1
2015-10-11T04:34:59.006Z,69
2015-10-11T04:35:58.947Z,68.6
2015-10-11T04:36:58.887Z,69.4
2015-10-11T04:37:58.827Z,69
2015-10-11T04:38:58.783Z,69.1
2015-10-11T04:39:58.707Z,68.6
2015-10-11T04:40:58.648Z,68.6
2015-10-11T04:41:58.588Z,68.5
2015-10-11T04:42:58.529Z,68.6
2015-10-11T04:43:58.515Z,69.3
2015-10-11T04:44:58.659Z,68.8
2015-10-11T04:45:58.362Z,69.3
2015-10-11T04:46:58.302Z,68.8
2015-10-11T04:47:58.243Z,68.7
2015-10-11T04:48:58.432Z,68.1
2015-10-11T04:49:58.138Z,68.7
2015-10-11T04:50:58.079Z,69.2
2015-10-11T04:51:58.004Z,68.8
2015-10-11T04:52:57.959Z,69.3
2015-10-11T04:53:57.899Z,69.4
2015-10-11T04:54:57.840Z,70.1
2015-10-11T04:55:57.779Z,69.3
2015-10-11T04:56:57.720Z,69.8
2015-10-11T04:57:57.660Z,69.3
2015-10-11T04:58:57.616Z,69.9
2015-10-11T04:59:57.790Z,69.7
2015-10-11T05:00:57.497Z,70.4
2015-10-11T05:01:57.436Z,70.1
2015-10-11T05:02:57.409Z,69.7
2015-10-11T05:03:57.317Z,69.9
2015-10-11T05:04:57.304Z,70
2015-10-11T05:05:57.447Z,70
2015-10-11T05:06:57.184Z,70.2
2015-10-11T05:07:57.094Z,70.1
2015-10-11T05:08:57.269Z,69.9
2015-10-11T05:09:57.005Z,70.4
2015-10-11T05:10:56.931Z,70.1
2015-10-11T05:11:56.860Z,69.8
2015-10-11T05:12:56.800Z,70.3
2015-10-11T05:13:56.756Z,70.1
2015-10-11T05:14:56.681Z,70.5
2015-10-11T05:15:56.636Z,69.7
2015-10-11T05:16:56.576Z,69.7
2015-10-11T05:17:56.516Z,70.2
2015-10-11T05:18:56.457Z,69.5
2015-10-11T05:19:56.397Z,70.2
2015-10-11T05:20:56.369Z,71
2015-10-11T05:21:56.294Z,71.2
2015-10-11T05:22:56.233Z,70.3
2015-10-11T05:23:56.174Z,69.8
2015-10-11T05:24:56.114Z,70.4
2015-10-11T05:25:56.069Z,70.3
2015-10-11T05:26:56.011Z,69.8
2015-10-11T05:27:55.935Z,70.2
2015-10-11T05:28:55.907Z,70.2
2015-10-11T05:29:55.815Z,70.4
2015-10-11T05:30:56.005Z,70.1
2015-10-11T05:31:55.711Z,70.4
2015-10-11T05:32:55.886Z,70.8
2015-10-11T05:33:55.607Z,70
2015-10-11T05:34:55.532Z,70.4
2015-10-11T05:35:55.471Z,70.6
2015-10-11T05:36:55.428Z,70.2
2015-10-11T05:37:55.368Z,70.7
2015-10-11T05:38:55.528Z,71
2015-10-11T05:39:55.249Z,70.7
2015-10-11T05:40:55.220Z,70.4
2015-10-11T05:41:55.129Z,70.9
2015-10-11T05:42:55.085Z,71
2015-10-11T05:43:55.023Z,71.1
2015-10-11T05:44:54.962Z,71
2015-10-11T05:45:54.903Z,70.3
2015-10-11T05:46:54.859Z,71.7
2015-10-11T05:47:54.784Z,71.3
2015-10-11T05:48:54.724Z,70.3
2015-10-11T05:49:54.664Z,70.6
2015-10-11T05:50:54.604Z,70.9
2015-10-11T05:51:54.545Z,71.3
2015-10-11T05:52:54.500Z,71.1
2015-10-11T05:53:54.425Z,71.7
2015-10-11T05:54:54.365Z,70.8
2015-10-11T05:55:54.321Z,70.8
2015-10-11T05:56:54.261Z,70.3
2015-10-11T05:57:54.186Z,70.8
2015-10-11T05:58:54.142Z,70.7
2015-10-11T05:59:54.098Z,70.3
2015-10-11T06:00:54.023Z,70.5
2015-10-11T06:01:53.978Z,70.6
2015-10-11T06:02:53.903Z,71
2015-10-11T06:03:53.843Z,70.7
2015-10-11T06:04:53.065Z,69.9
2015-10-11T06:05:53.973Z,70.8
2015-10-11T06:06:53.695Z,70.7
2015-10-11T06:07:53.620Z,70.4
2015-10-11T06:08:53.560Z,70.5
2015-10-11T06:09:53.500Z,70.6
2015-10-11T06:10:53.455Z,70.6
2015-10-11T06:11:53.397Z,70
2015-10-11T06:12:53.336Z,70.3
2015-10-11T06:13:53.292Z,70.2
2015-10-11T06:14:53.216Z,70.3
2015-10-11T06:15:53.158Z,69.8
2015-10-11T06:16:53.097Z,69.4
2015-10-11T06:17:53.288Z,69.7
2015-10-11T06:18:53.009Z,69.5
2015-10-11T06:19:53.169Z,69.2
2015-10-11T06:20:52.139Z,69.3
2015-10-11T06:21:52.830Z,68.8
2015-10-11T06:22:52.755Z,69.7
2015-10-11T06:23:52.710Z,68.8
2015-10-11T06:24:52.650Z,68.5
2015-10-11T06:25:52.575Z,68.7
2015-10-11T06:26:52.547Z,69.1
2015-10-11T06:27:52.472Z,69
2015-10-11T06:28:52.412Z,67.4
2015-10-11T06:29:52.352Z,67.6
2015-10-11T06:30:52.291Z,68.6
2015-10-11T06:31:52.232Z,68.7
2015-10-11T06:32:52.188Z,68.9
2015-10-11T06:33:52.128Z,68.1
2015-10-11T06:34:52.068Z,68.7
2015-10-11T06:35:52.005Z,68.6
2015-10-11T06:36:52.181Z,68
2015-10-11T06:37:51.886Z,67.9
2015-10-11T06:38:51.843Z,68.5
2015-10-11T06:39:51.766Z,68.3
2015-10-11T06:40:51.723Z,67.8
2015-10-11T06:41:51.662Z,67.3
2015-10-11T06:42:51.603Z,66.9
2015-10-11T06:43:51.543Z,67.4
2015-10-11T06:44:51.499Z,66.7
2015-10-11T06:45:51.424Z,66.4
2015-10-11T06:46:51.458Z,66.1
2015-10-11T06:47:51.320Z,65.3
2015-10-11T06:48:51.260Z,65.8
2015-10-11T06:49:51.201Z,65
2015-10-11T06:50:51.375Z,65.5
2015-10-11T06:51:51.081Z,65.2
2015-10-11T06:52:51.037Z,65.7
2015-10-11T06:53:50.962Z,66
2015-10-11T06:54:50.901Z,64.4
2015-10-11T06:55:50.857Z,64.3
2015-10-11T06:56:50.797Z,65.4
2015-10-11T06:57:50.737Z,65.5
2015-10-11T06:58:49.943Z,65.7
2015-10-11T06:59:50.618Z,65.1
2015-10-11T07:00:50.574Z,64.8
2015-10-11T07:01:50.515Z,64.8
2015-10-11T07:02:50.439Z,64.5
2015-10-11T07:03:50.395Z,64.1
2015-10-11T07:04:50.350Z,62.7
2015-10-11T07:05:50.275Z,62.8
2015-10-11T07:06:50.231Z,63.8
2015-10-11T07:07:50.186Z,63
2015-10-11T07:08:50.111Z,63.7
2015-10-11T07:09:50.052Z,62.1
2015-10-11T07:10:49.992Z,62.7
2015-10-11T07:11:49.947Z,62.9
2015-10-11T07:12:49.889Z,62.5
2015-10-11T07:13:49.845Z,63.4
2015-10-11T07:14:49.769Z,63.1
2015-10-11T07:15:49.708Z,62.5
2015-10-11T07:16:49.681Z,62.9
2015-10-11T07:17:49.589Z,62.4
2015-10-11T07:18:49.560Z,63.3
2015-10-11T07:19:49.485Z,61.4
2015-10-11T07:20:49.425Z,63
2015-10-11T07:21:49.381Z,63.1
2015-10-11T07:22:49.322Z,63.6
2015-10-11T07:23:49.277Z,63.6
2015-10-11T07:24:49.437Z,63.3
2015-10-11T07:25:49.158Z,63.8
2015-10-11T07:26:49.099Z,62.7
2015-10-11T07:27:49.038Z,60.7
2015-10-11T07:28:48.979Z,60.4
2015-10-11T07:29:48.919Z,60.2
2015-10-11T07:30:48.874Z,61.8
2015-10-11T07:31:48.816Z,62.9
2015-10-11T07:32:48.755Z,62
2015-10-11T07:33:48.696Z,61.9
2015-10-11T07:34:48.635Z,62.3
2015-10-11T07:35:48.592Z,63.2
2015-10-11T07:36:48.516Z,63.1
2015-10-11T07:37:48.456Z,63.2
2015-10-11T07:38:48.412Z,62.8
2015-10-11T07:39:48.352Z,61.3
2015-10-11T07:40:48.293Z,61.1
2015-10-11T07:41:48.230Z,61.1
2015-10-11T07:42:48.186Z,61.4
2015-10-11T07:43:48.126Z,60.2
2015-10-11T07:44:48.066Z,61.9
2015-10-11T07:45:48.007Z,62
2015-10-11T07:46:47.947Z,62.2
2015-10-11T07:47:47.903Z,60.9
2015-10-11T07:48:47.827Z,61.8
2015-10-11T07:49:47.784Z,60.6
2015-10-11T07:50:47.723Z,60.5
2015-10-11T07:51:47.663Z,60.9
2015-10-11T07:52:47.604Z,60.4
2015-10-11T07:53:47.545Z,60.8
2015-10-11T07:54:47.500Z,62.6
2015-10-11T07:55:47.440Z,61.8
2015-10-11T07:56:47.381Z,61.3
2015-10-11T07:57:47.321Z,62.2
2015-10-11T07:58:47.277Z,61.6
2015-10-11T07:59:47.232Z,61.8
2015-10-11T08:00:47.156Z,60.2
2015-10-11T08:01:47.098Z,61.8
2015-10-11T08:02:47.053Z,62
2015-10-11T08:03:46.993Z,63.1
2015-10-11T08:04:46.933Z,61.8
2015-10-11T08:05:46.873Z,62.6
2015-10-11T08:06:47.065Z,61.7
2015-10-11T08:07:46.754Z,62
2015-10-11T08:08:46.711Z,61
2015-10-11T08:09:46.651Z,60.4
2015-10-11T08:10:46.591Z,60.6
2015-10-11T08:11:46.547Z,59.6
2015-10-11T08:12:46.471Z,59
2015-10-11T08:13:46.459Z,61.6
2015-10-11T08:14:46.367Z,61.2
2015-10-11T08:15:46.308Z,60.7
2015-10-11T08:16:46.263Z,60.2
2015-10-11T08:17:46.203Z,60.6
2015-10-11T08:18:46.144Z,60.1
2015-10-11T08:19:46.084Z,60.2
2015-10-11T08:20:46.040Z,60.7
2015-10-11T08:21:45.997Z,60.4
2015-10-11T08:22:45.921Z,60.9
2015-10-11T08:23:45.861Z,60.7
2015-10-11T08:24:45.816Z,59.7
2015-10-11T08:25:45.991Z,60.7
2015-10-11T08:26:45.697Z,61.2
2015-10-11T08:27:45.653Z,59.9
2015-10-11T08:28:45.578Z,58.8
2015-10-11T08:29:45.533Z,59.9
2015-10-11T08:30:45.471Z,59.1
2015-10-11T08:31:45.427Z,58.9
2015-10-11T08:32:45.366Z,58.7
2015-10-11T08:33:45.338Z,61.2
2015-10-11T08:34:45.247Z,60.8
2015-10-11T08:35:45.203Z,59.4
2015-10-11T08:36:45.144Z,60.4
2015-10-11T08:37:45.084Z,59.7
2015-10-11T08:38:45.024Z,61.2
2015-10-11T08:39:44.964Z,60.4
2015-10-11T08:40:44.905Z,60.3
2015-10-11T08:41:44.860Z,59.2
2015-10-11T08:42:44.801Z,60.9
2015-10-11T08:43:44.741Z,60.2
2015-10-11T08:44:44.681Z,59.5
2015-10-11T08:45:44.621Z,59.9
2015-10-11T08:46:44.562Z,59.3
2015-10-11T08:47:44.518Z,58.6
2015-10-11T08:48:44.474Z,59.7
2015-10-11T08:49:44.445Z,59.6
2015-10-11T08:50:44.354Z,59.1
2015-10-11T08:51:44.294Z,59
2015-10-11T08:52:44.234Z,58.1
2015-10-11T08:53:44.190Z,58.8
2015-10-11T08:54:44.130Z,57.8
2015-10-11T08:55:44.055Z,59.9
2015-10-11T08:56:44.001Z,59.4
2015-10-11T08:57:43.925Z,59.8
2015-10-11T08:58:43.847Z,60.1
2015-10-11T08:59:43.770Z,59.6
2015-10-11T09:00:43.709Z,58.4
2015-10-11T09:01:43.639Z,59.1
2015-10-11T09:02:43.572Z,59
2015-10-11T09:03:43.521Z,59.7
2015-10-11T09:04:43.455Z,59.1
2015-10-11T09:05:43.388Z,59.2
2015-10-11T09:06:43.326Z,59.4
2015-10-11T09:07:43.280Z,59.8
2015-10-11T09:08:43.217Z,60.5
2015-10-11T09:09:43.170Z,58.8
2015-10-11T09:10:43.093Z,59
2015-10-11T09:11:43.032Z,59.1
2015-10-11T09:12:42.237Z,59.1
2015-10-11T09:13:43.154Z,58.4
2015-10-11T09:14:42.734Z,59.3
2015-10-11T09:15:42.814Z,58.7
2015-10-11T09:16:42.755Z,58.5
2015-10-11T09:17:42.726Z,57.9
2015-10-11T09:18:42.651Z,58.6
2015-10-11T09:19:42.575Z,59.1
2015-10-11T09:20:42.531Z,58.2
2015-10-11T09:21:42.471Z,59.2
2015-10-11T09:22:42.411Z,58.8
2015-10-11T09:23:42.352Z,59.8
2015-10-11T09:24:42.542Z,59.1
2015-10-11T09:25:42.247Z,59.4
2015-10-11T09:26:42.204Z,60.3
2015-10-11T09:27:42.127Z,59.7
2015-10-11T09:28:42.084Z,59.8
2015-10-11T09:29:42.023Z,58.8
2015-10-11T09:30:41.980Z,59.1
2015-10-11T09:31:41.920Z,58.3
2015-10-11T09:32:41.860Z,58.6
2015-10-11T09:33:41.800Z,57.8
2015-10-11T09:34:41.756Z,58
2015-10-11T09:35:41.696Z,59.5
2015-10-11T09:36:41.621Z,59.5
2015-10-11T09:37:41.576Z,58.2
2015-10-11T09:38:41.532Z,58.1
2015-10-11T09:39:41.473Z,57.9
2015-10-11T09:40:41.412Z,57.2
2015-10-11T09:41:41.369Z,57.4
2015-10-11T09:42:41.293Z,57.9
2015-10-11T09:43:41.249Z,57.8
2015-10-11T09:44:41.189Z,57.6
2015-10-11T09:45:41.161Z,57.4
2015-10-11T09:46:41.070Z,56.8
2015-10-11T09:47:41.041Z,56.1
2015-10-11T09:48:41.216Z,56.8
2015-10-11T09:49:40.922Z,57
2015-10-11T09:50:40.844Z,56.5
2015-10-11T09:51:40.800Z,55.6
2015-10-11T09:52:40.739Z,55.5
2015-10-11T09:53:40.929Z,52.7
2015-10-11T09:54:40.635Z,52.4
2015-10-11T09:55:40.575Z,50.7
2015-10-11T09:56:40.532Z,52.3
2015-10-11T09:57:40.455Z,52.6
2015-10-11T09:58:40.412Z,52.9
2015-10-11T09:59:40.352Z,51.2
2015-10-11T10:00:40.543Z,51.2
2015-10-11T10:01:40.232Z,51.1
2015-10-11T10:02:40.173Z,53.2
2015-10-11T10:03:40.112Z,54.4
2015-10-11T10:04:40.085Z,52.4
2015-10-11T10:05:40.009Z,51.9
2015-10-11T10:06:39.965Z,53.5
2015-10-11T10:07:39.936Z,53.9
2015-10-11T10:08:39.861Z,51
2015-10-11T10:09:39.785Z,51.8
2015-10-11T10:10:39.741Z,52.1
2015-10-11T10:11:39.681Z,53.3
2015-10-11T10:12:39.621Z,52.5
2015-10-11T10:13:39.578Z,51.7
2015-10-11T10:14:39.737Z,52.8
2015-10-11T10:15:39.458Z,51.1
2015-10-11T10:16:39.398Z,52.7
2015-10-11T10:17:39.353Z,53.3
2015-10-11T10:18:39.309Z,53
2015-10-11T10:19:39.250Z,51.4
2015-10-11T10:20:39.190Z,51.4
2015-10-11T10:21:39.131Z,51.2
2015-10-11T10:22:39.087Z,51.2
2015-10-11T10:23:39.026Z,52
2015-10-11T10:24:38.950Z,52.5
2015-10-11T10:25:38.906Z,52.6
2015-10-11T10:26:38.847Z,50.7
2015-10-11T10:27:38.787Z,52.1
2015-10-11T10:28:38.743Z,52.9
2015-10-11T10:29:38.683Z,51.3
2015-10-11T10:30:38.624Z,51
2015-10-11T10:31:38.580Z,50.1
2015-10-11T10:32:38.520Z,49
2015-10-11T10:33:38.475Z,50.2
2015-10-11T10:34:38.415Z,50.9
2015-10-11T10:35:38.355Z,49.4
2015-10-11T10:36:38.296Z,49.2
2015-10-11T10:37:38.251Z,49.4
2015-10-11T10:38:38.426Z,49.1
2015-10-11T10:39:38.132Z,49.2
2015-10-11T10:40:38.088Z,50
2015-10-11T10:41:38.029Z,51.7
2015-10-11T10:42:37.968Z,51.3
2015-10-11T10:43:37.908Z,48.8
2015-10-11T10:44:37.708Z,48.7
2015-10-11T10:45:37.820Z,48.3
2015-10-11T10:46:37.760Z,48.4
2015-10-11T10:47:37.700Z,49.3
2015-10-11T10:48:37.640Z,49.7
2015-10-11T10:49:37.581Z,48.6
2015-10-11T10:50:37.536Z,48.4
2015-10-11T10:51:37.476Z,48.1
2015-10-11T10:52:37.417Z,48.4
2015-10-11T10:53:37.356Z,50.2
2015-10-11T10:54:37.548Z,49.9
2015-10-11T10:55:37.269Z,51.4
2015-10-11T10:56:37.209Z,51.1
2015-10-11T10:57:37.150Z,48.9
2015-10-11T10:58:37.090Z,50.7
2015-10-11T10:59:37.030Z,51.2
2015-10-11T11:00:36.986Z,49.5
2015-10-11T11:01:36.941Z,49.7
2015-10-11T11:02:36.866Z,49.9
2015-10-11T11:03:36.822Z,48.7
2015-10-11T11:04:36.840Z,49.2
2015-10-11T11:05:36.702Z,47
2015-10-11T11:06:36.658Z,46.1
2015-10-11T11:07:36.832Z,47.1
2015-10-11T11:08:36.538Z,49.6
2015-10-11T11:09:36.494Z,48.2
2015-10-11T11:10:36.436Z,46.8
2015-10-11T11:11:36.391Z,47.4
2015-10-11T11:12:36.330Z,46.1
2015-10-11T11:13:36.271Z,47.4
2015-10-11T11:14:36.227Z,46.2
2015-10-11T11:15:36.167Z,46.5
2015-10-11T11:16:36.124Z,47.3
2015-10-11T11:17:36.063Z,48.8
2015-10-11T11:18:36.004Z,47.7
2015-10-11T11:19:35.944Z,47.5
2015-10-11T11:20:35.900Z,47
2015-10-11T11:21:35.840Z,47.6
2015-10-11T11:22:35.046Z,48.5
2015-10-11T11:23:35.736Z,49.8
2015-10-11T11:24:35.692Z,49.8
2015-10-11T11:25:35.616Z,48.9
2015-10-11T11:26:35.572Z,50.1
2015-10-11T11:27:35.513Z,49
2015-10-11T11:28:35.452Z,49.8
2015-10-11T11:29:35.409Z,50.6
2015-10-11T11:30:35.349Z,50.3
2015-10-11T11:31:35.289Z,50.7
2015-10-11T11:32:35.245Z,49.1
2015-10-11T11:33:35.201Z,48.2
2015-10-11T11:34:35.123Z,47.9
2015-10-11T11:35:35.079Z,49.5
2015-10-11T11:36:35.019Z,49.7
2015-10-11T11:37:34.974Z,50
2015-10-11T11:38:34.931Z,49.8
2015-10-11T11:39:34.855Z,49.2
2015-10-11T11:40:34.811Z,48.6
2015-10-11T11:41:34.752Z,49.2
2015-10-11T11:42:34.707Z,49.1
2015-10-11T11:43:34.648Z,48.5
2015-10-11T11:44:34.603Z,48.7
2015-10-11T11:45:34.544Z,47.9
2015-10-11T11:46:33.749Z,47.5
2015-10-11T11:47:34.424Z,48.1
2015-10-11T11:48:34.380Z,49.3
2015-10-11T11:49:34.320Z,50.2
2015-10-11T11:50:34.260Z,50
2015-10-11T11:51:34.216Z,49.2
2015-10-11T11:52:34.156Z,48.7
2015-10-11T11:53:34.098Z,45.9
2015-10-11T11:54:34.037Z,46.2
2015-10-11T11:55:33.993Z,46.5
2015-10-11T11:56:33.934Z,48.1
2015-10-11T11:57:33.890Z,48.7
2015-10-11T11:58:33.829Z,47.6
2015-10-11T11:59:33.770Z,46.4
2015-10-11T12:00:33.726Z,47.1
2015-10-11T12:01:33.901Z,48.7
2015-10-11T12:02:33.606Z,48.3
2015-10-11T12:03:33.546Z,49.3
2015-10-11T12:04:33.518Z,48.4
2015-10-11T12:05:33.442Z,48.5
2015-10-11T12:06:33.398Z,45.6
2015-10-11T12:07:33.338Z,44.6
2015-10-11T12:08:33.278Z,45.8
2015-10-11T12:09:33.235Z,47.5
2015-10-11T12:10:33.175Z,45.6
2015-10-11T12:11:33.115Z,46.9
2015-10-11T12:12:33.070Z,47.4
2015-10-11T12:13:33.011Z,46.8
2015-10-11T12:14:32.951Z,48.6
2015-10-11T12:15:32.908Z,47.6
2015-10-11T12:16:32.847Z,48.6
2015-10-11T12:17:32.803Z,48.5
2015-10-11T12:18:32.743Z,47.6
2015-10-11T12:19:32.684Z,47.2
2015-10-11T12:20:32.640Z,46.5
2015-10-11T12:21:32.814Z,46.2
2015-10-11T12:22:32.517Z,45
2015-10-11T12:23:32.473Z,46
2015-10-11T12:24:32.413Z,47.8
2015-10-11T12:25:32.353Z,47.9
2015-10-11T12:26:32.309Z,48.7
2015-10-11T12:27:32.250Z,49.5
2015-10-11T12:28:32.190Z,49.4
2015-10-11T12:29:32.146Z,49.3
2015-10-11T12:30:32.086Z,50
2015-10-11T12:31:32.041Z,46.6
2015-10-11T12:32:31.982Z,47.6
2015-10-11T12:33:31.921Z,48.8
2015-10-11T12:34:31.878Z,48.4
2015-10-11T12:35:31.818Z,47.9
2015-10-11T12:36:31.758Z,45.5
2015-10-11T12:37:31.715Z,45.5
2015-10-11T12:38:31.654Z,46.7
2015-10-11T12:39:31.595Z,45.1
2015-10-11T12:40:31.551Z,45.4
2015-10-11T12:41:31.491Z,44.5
2015-10-11T12:42:31.447Z,45
2015-10-11T12:43:31.403Z,45.5
2015-10-11T12:44:31.359Z,46.7
2015-10-11T12:45:31.268Z,47.7
2015-10-11T12:46:31.207Z,47.1
2015-10-11T12:47:31.164Z,46.9
2015-10-11T12:48:31.104Z,46.9
2015-10-11T12:49:31.060Z,47.2
2015-10-11T12:50:31.001Z,46.2
2015-10-11T12:51:30.941Z,47
2015-10-11T12:52:30.896Z,46.1
2015-10-11T12:53:30.837Z,47.3
2015-10-11T12:54:30.793Z,48
2015-10-11T12:55:30.967Z,47.6
2015-10-11T12:56:30.673Z,49.2
2015-10-11T12:57:30.629Z,47.6
2015-10-11T12:58:30.804Z,47.2
2015-10-11T12:59:30.526Z,45
2015-10-11T13:00:30.465Z,47.9
2015-10-11T13:01:30.405Z,45.6
2015-10-11T13:02:30.346Z,45.6
2015-10-11T13:03:30.302Z,46.8
2015-10-11T13:04:30.242Z,47.3
2015-10-11T13:05:30.198Z,47.2
2015-10-11T13:06:30.137Z,46.9
2015-10-11T13:07:30.078Z,46.9
2015-10-11T13:08:30.034Z,46.8
2015-10-11T13:09:29.974Z,47.7
2015-10-11T13:10:29.931Z,47.6
2015-10-11T13:11:29.870Z,46.9
2015-10-11T13:12:29.811Z,48.3
2015-10-11T13:13:29.782Z,48.2
2015-10-11T13:14:29.704Z,47.8
2015-10-11T13:15:29.659Z,48.2
2015-10-11T13:16:29.740Z,47.5
2015-10-11T13:17:29.572Z,47.2
2015-10-11T13:18:29.480Z,47
2015-10-11T13:19:29.436Z,47.4
2015-10-11T13:20:29.611Z,48.1
2015-10-11T13:21:29.333Z,48.3
2015-10-11T13:22:29.272Z,46.9